createdAt,value
2022-12-11T00:00:18.098Z,17.27
2022-12-11T00:02:46.890Z,17.43
2022-12-11T00:05:15.958Z,16.90
2022-12-11T00:07:46.089Z,15.17
2022-12-11T00:10:14.850Z,16.07
2022-12-11T00:12:43.423Z,16.23
2022-12-11T00:15:13.156Z,17.27
2022-12-11T00:17:42.138Z,16.07
2022-12-11T00:20:12.120Z,16.73
2022-12-11T00:22:40.780Z,16.87
2022-12-11T00:25:11.862Z,19.43
2022-12-11T00:27:41.026Z,19.83
2022-12-11T00:30:11.326Z,17.77
2022-12-11T00:32:39.896Z,18.20
2022-12-11T00:35:10.534Z,19.40
2022-12-11T00:37:39.291Z,19.77
2022-12-11T00:40:11.596Z,21.00
2022-12-11T00:42:40.271Z,21.33
2022-12-11T00:45:10.425Z,18.87
2022-12-11T00:47:39.322Z,21.00
2022-12-11T00:50:09.416Z,22.40
2022-12-11T00:52:38.149Z,17.83
2022-12-11T00:55:07.935Z,21.30
2022-12-11T00:57:38.252Z,19.47
2022-12-11T01:00:08.536Z,18.60
2022-12-11T01:02:37.177Z,20.07
2022-12-11T01:05:06.852Z,19.07
2022-12-11T01:07:35.639Z,18.77
2022-12-11T01:10:23.293Z,17.07
2022-12-11T01:12:56.878Z,16.60
2022-12-11T01:15:28.236Z,16.90
2022-12-11T01:17:58.128Z,17.07
2022-12-11T01:20:29.236Z,19.30
2022-12-11T01:23:01.961Z,17.50
2022-12-11T01:25:30.790Z,19.60
2022-12-11T01:28:00.905Z,21.30
2022-12-11T01:30:29.530Z,19.30
2022-12-11T01:32:58.270Z,19.53
2022-12-11T01:35:26.858Z,21.77
2022-12-11T01:37:55.620Z,18.67
2022-12-11T01:40:25.034Z,18.73
2022-12-11T01:42:53.738Z,20.43
2022-12-11T01:45:33.355Z,18.83
2022-12-11T01:48:09.370Z,18.80
2022-12-11T01:50:43.269Z,19.63
2022-12-11T01:53:18.894Z,21.27
2022-12-11T01:55:50.900Z,18.13
2022-12-11T01:58:23.722Z,18.93
2022-12-11T02:00:55.915Z,20.93
2022-12-11T02:03:24.665Z,20.23
2022-12-11T02:05:53.461Z,21.33
2022-12-11T02:08:22.910Z,19.10
2022-12-11T02:11:07.682Z,20.23
2022-12-11T02:13:46.003Z,19.63
2022-12-11T02:16:26.386Z,18.63
2022-12-11T02:19:04.125Z,19.03
2022-12-11T02:21:39.678Z,19.60
2022-12-11T02:24:38.989Z,21.27
2022-12-11T02:27:24.892Z,20.60
2022-12-11T02:30:03.781Z,19.20
2022-12-11T02:32:42.203Z,19.63
2022-12-11T02:35:18.684Z,20.93
2022-12-11T02:37:50.967Z,22.10
2022-12-11T02:40:26.072Z,21.37
2022-12-11T02:42:59.002Z,21.60
2022-12-11T02:45:30.317Z,22.20
2022-12-11T02:48:04.432Z,18.93
2022-12-11T02:50:37.339Z,20.50
2022-12-11T02:53:08.320Z,22.07
2022-12-11T02:55:39.199Z,21.97
2022-12-11T02:58:15.792Z,21.50
2022-12-11T03:00:46.833Z,20.47
2022-12-11T03:03:16.382Z,21.87
2022-12-11T03:05:46.251Z,20.13
2022-12-11T03:08:17.599Z,22.27
2022-12-11T03:10:47.097Z,20.63
2022-12-11T03:13:22.835Z,21.03
2022-12-11T03:16:08.440Z,23.47
2022-12-11T03:18:50.434Z,22.47
2022-12-11T03:21:29.342Z,23.87
2022-12-11T03:24:06.557Z,20.53
2022-12-11T03:26:43.550Z,25.60
2022-12-11T03:29:21.278Z,21.23
2022-12-11T03:31:59.661Z,21.57
2022-12-11T03:34:39.730Z,22.20
2022-12-11T03:37:11.744Z,21.20
2022-12-11T03:39:44.945Z,20.57
2022-12-11T03:42:16.551Z,22.07
2022-12-11T03:44:49.649Z,24.87
2022-12-11T03:47:25.060Z,25.10
2022-12-11T03:49:55.983Z,25.83
2022-12-11T03:52:27.658Z,23.23
2022-12-11T03:55:01.993Z,23.13
2022-12-11T03:57:35.802Z,21.70
2022-12-11T04:00:06.011Z,21.63
2022-12-11T04:02:36.070Z,22.03
2022-12-11T04:05:05.334Z,27.60
2022-12-11T04:07:34.040Z,26.83
2022-12-11T04:10:02.869Z,25.63
2022-12-11T04:12:31.558Z,28.33
2022-12-11T04:15:04.767Z,26.37
2022-12-11T04:17:53.924Z,26.70
2022-12-11T04:20:41.412Z,29.60
2022-12-11T04:23:34.113Z,30.60
2022-12-11T04:26:07.386Z,31.07
2022-12-11T04:28:36.959Z,26.53
2022-12-11T04:31:06.896Z,28.13
2022-12-11T04:33:36.888Z,27.50
2022-12-11T04:36:06.114Z,29.60
2022-12-11T04:38:35.114Z,27.87
2022-12-11T04:41:07.639Z,29.10
2022-12-11T04:43:36.814Z,28.93
2022-12-11T04:46:07.961Z,29.63
2022-12-11T04:48:39.285Z,29.73
2022-12-11T04:51:09.520Z,30.43
2022-12-11T04:53:39.158Z,27.43
2022-12-11T04:56:08.993Z,28.43
2022-12-11T04:58:38.969Z,24.27
2022-12-11T05:01:09.814Z,27.73
2022-12-11T05:03:40.620Z,25.13
2022-12-11T05:06:11.472Z,26.90
2022-12-11T05:08:42.668Z,28.63
2022-12-11T05:11:15.334Z,29.47
2022-12-11T05:13:45.609Z,26.33
2022-12-11T05:16:17.595Z,25.07
2022-12-11T05:18:48.613Z,23.50
2022-12-11T05:21:17.685Z,24.07
2022-12-11T05:23:46.389Z,21.43
2022-12-11T05:26:19.298Z,23.60
2022-12-11T05:28:53.365Z,22.93
2022-12-11T05:31:25.110Z,25.07
2022-12-11T05:33:56.066Z,24.10
2022-12-11T05:36:27.444Z,24.23
2022-12-11T05:38:57.380Z,23.50
2022-12-11T05:41:28.817Z,21.67
2022-12-11T05:43:57.652Z,22.67
2022-12-11T05:46:29.586Z,25.37
2022-12-11T05:49:02.861Z,23.60
2022-12-11T05:51:33.927Z,23.73
2022-12-11T05:54:03.036Z,22.43
2022-12-11T05:56:34.271Z,27.50
2022-12-11T05:59:04.988Z,26.17
2022-12-11T06:01:36.576Z,25.07
2022-12-11T06:04:08.887Z,24.07
2022-12-11T06:06:38.374Z,23.23
2022-12-11T06:09:08.233Z,24.43
2022-12-11T06:11:37.666Z,24.40
2022-12-11T06:14:06.524Z,25.00
2022-12-11T06:16:35.146Z,25.27
2022-12-11T06:19:05.330Z,27.10
2022-12-11T06:21:35.318Z,25.27
2022-12-11T06:24:06.806Z,27.00
2022-12-11T06:26:35.426Z,24.70
2022-12-11T06:29:09.005Z,26.03
2022-12-11T06:31:41.110Z,24.53
2022-12-11T06:34:14.291Z,26.53
2022-12-11T06:36:42.960Z,24.37
2022-12-11T06:39:12.312Z,25.50
2022-12-11T06:41:40.928Z,25.87
2022-12-11T06:44:10.113Z,24.67
2022-12-11T06:46:39.112Z,23.83
2022-12-11T06:49:07.771Z,26.07
2022-12-11T06:51:37.729Z,24.00
2022-12-11T06:54:06.599Z,23.07
2022-12-11T06:56:36.451Z,25.40
2022-12-11T06:59:07.550Z,24.73
2022-12-11T07:01:36.541Z,22.60
2022-12-11T07:04:05.180Z,25.47
2022-12-11T07:06:33.864Z,25.23
2022-12-11T07:09:05.811Z,22.07
2022-12-11T07:11:34.673Z,25.33
2022-12-11T07:14:03.438Z,25.77
2022-12-11T07:16:32.106Z,22.50
2022-12-11T07:19:00.685Z,22.00
2022-12-11T07:21:29.364Z,24.93
2022-12-11T07:23:57.964Z,22.47
2022-12-11T07:26:28.353Z,19.77
2022-12-11T07:28:59.689Z,18.83
2022-12-11T07:31:31.055Z,16.97
2022-12-11T07:34:01.787Z,15.20
2022-12-11T07:36:32.469Z,15.90
2022-12-11T07:39:02.045Z,15.17
2022-12-11T07:41:32.174Z,13.30
2022-12-11T07:44:02.103Z,13.40
2022-12-11T07:46:33.626Z,11.30
2022-12-11T07:49:02.963Z,10.73
2022-12-11T07:51:33.983Z,17.67
2022-12-11T07:54:05.502Z,17.20
2022-12-11T07:56:36.485Z,14.27
2022-12-11T07:59:07.833Z,14.00
2022-12-11T08:01:38.874Z,12.87
2022-12-11T08:04:10.282Z,12.83
2022-12-11T08:06:41.245Z,13.50
2022-12-11T08:09:20.692Z,15.37
2022-12-11T08:11:52.183Z,17.77
2022-12-11T08:14:21.946Z,15.30
2022-12-11T08:16:50.906Z,15.17
2022-12-11T08:19:19.685Z,13.03
2022-12-11T08:21:48.359Z,13.53
2022-12-11T08:24:20.705Z,11.77
2022-12-11T08:26:51.266Z,13.00
2022-12-11T08:29:19.907Z,15.03
2022-12-11T08:31:48.563Z,11.40
2022-12-11T08:34:17.198Z,12.07
2022-12-11T08:36:45.782Z,12.13
2022-12-11T08:39:17.595Z,11.47
2022-12-11T08:41:46.393Z,11.83
2022-12-11T08:44:17.134Z,10.73
2022-12-11T08:46:46.947Z,11.53
2022-12-11T08:49:15.702Z,11.43
2022-12-11T08:51:44.584Z,12.93
2022-12-11T08:54:13.354Z,13.27
2022-12-11T08:56:41.963Z,11.40
2022-12-11T08:59:10.819Z,12.40
2022-12-11T09:01:40.863Z,11.97
2022-12-11T09:04:10.631Z,13.57
2022-12-11T09:06:39.346Z,13.80
2022-12-11T09:09:08.399Z,13.20
2022-12-11T09:11:41.189Z,13.43
2022-12-11T09:14:10.032Z,12.40
2022-12-11T09:16:41.896Z,14.40
2022-12-11T09:19:14.832Z,12.70
2022-12-11T09:21:44.756Z,14.50
2022-12-11T09:24:15.129Z,13.80
2022-12-11T09:26:44.131Z,14.37
2022-12-11T09:29:13.927Z,15.10
2022-12-11T09:31:44.378Z,14.43
2022-12-11T09:34:15.050Z,13.13
2022-12-11T09:36:45.383Z,14.50
2022-12-11T09:39:15.983Z,15.00
2022-12-11T09:41:58.198Z,14.53
2022-12-11T09:44:39.198Z,15.00
2022-12-11T09:47:25.128Z,16.90
2022-12-11T09:50:06.004Z,21.73
2022-12-11T09:52:39.533Z,14.97
2022-12-11T09:55:18.803Z,16.63
2022-12-11T09:58:05.366Z,14.00
2022-12-11T10:00:43.712Z,16.83
2022-12-11T10:03:53.968Z,15.70
2022-12-11T10:06:31.858Z,16.63
2022-12-11T10:09:15.560Z,17.33
2022-12-11T10:12:03.883Z,16.27
2022-12-11T10:14:48.804Z,15.20
2022-12-11T10:17:24.596Z,15.30
2022-12-11T10:19:57.846Z,15.57
2022-12-11T10:22:34.157Z,15.17
2022-12-11T10:25:23.353Z,15.17
2022-12-11T10:27:52.770Z,15.83
2022-12-11T10:30:25.387Z,16.10
2022-12-11T10:33:03.481Z,15.10
2022-12-11T10:35:41.417Z,14.80
2022-12-11T10:38:18.585Z,17.13
2022-12-11T10:40:52.970Z,17.97
2022-12-11T10:43:21.989Z,15.97
2022-12-11T10:45:55.895Z,18.53
2022-12-11T10:48:24.532Z,21.10
2022-12-11T10:51:03.789Z,33.27
2022-12-11T10:53:35.589Z,20.60
2022-12-11T10:56:04.780Z,15.60
2022-12-11T10:58:36.539Z,16.87
2022-12-11T11:01:10.356Z,15.47
2022-12-11T11:03:55.834Z,18.73
2022-12-11T11:06:27.580Z,16.67
2022-12-11T11:08:59.247Z,15.37
2022-12-11T11:11:34.332Z,14.80
2022-12-11T11:14:13.314Z,14.73
2022-12-11T11:16:44.560Z,14.73
2022-12-11T11:19:23.846Z,15.47
2022-12-11T11:21:57.609Z,15.90
2022-12-11T11:25:26.620Z,16.17
2022-12-11T11:27:59.374Z,14.97
2022-12-11T11:30:31.970Z,16.70
2022-12-11T11:33:06.884Z,15.27
2022-12-11T11:35:35.592Z,14.67
2022-12-11T11:38:20.128Z,13.47
2022-12-11T11:41:05.580Z,14.27
2022-12-11T11:44:12.854Z,15.73
2022-12-11T11:47:16.992Z,14.80
2022-12-11T11:50:47.585Z,14.17
2022-12-11T11:53:26.712Z,13.63
2022-12-11T11:56:08.206Z,15.63
2022-12-11T11:58:44.914Z,14.00
2022-12-11T12:01:19.376Z,13.30
2022-12-11T12:03:50.516Z,14.93
2022-12-11T12:06:33.157Z,15.77
2022-12-11T12:09:18.643Z,16.50
2022-12-11T12:11:56.654Z,13.33
2022-12-11T12:17:36.173Z,13.20
2022-12-11T12:20:19.759Z,13.40
2022-12-11T12:23:01.653Z,14.27
2022-12-11T12:25:42.008Z,12.53
2022-12-11T12:28:26.391Z,12.80
2022-12-11T12:31:18.418Z,12.67
2022-12-11T12:34:03.987Z,14.30
2022-12-11T12:36:45.257Z,12.50
2022-12-11T12:39:29.393Z,14.10
2022-12-11T12:42:12.607Z,18.67
2022-12-11T12:44:55.276Z,13.20
2022-12-11T12:47:25.358Z,12.77
2022-12-11T12:49:57.248Z,10.90
2022-12-11T12:52:34.860Z,10.30
2022-12-11T12:55:23.030Z,9.77
2022-12-11T12:57:57.585Z,9.73
2022-12-11T13:00:34.629Z,9.20
2022-12-11T13:03:14.797Z,9.17
2022-12-11T13:05:47.468Z,10.23
2022-12-11T13:08:27.245Z,8.50
2022-12-11T13:11:05.055Z,8.93
2022-12-11T13:13:42.739Z,8.90
2022-12-11T13:16:28.773Z,8.07
2022-12-11T13:18:57.502Z,9.43
2022-12-11T13:21:33.864Z,8.77
2022-12-11T13:24:25.686Z,8.03
2022-12-11T13:26:54.734Z,8.40
2022-12-11T13:29:38.102Z,8.37
2022-12-11T13:32:25.777Z,8.10
2022-12-11T13:34:58.417Z,8.30
2022-12-11T13:37:34.877Z,9.27
2022-12-11T13:40:10.218Z,8.73
2022-12-11T13:42:50.148Z,9.57
2022-12-11T13:45:28.521Z,8.57
2022-12-11T13:47:59.357Z,8.83
2022-12-11T13:50:33.215Z,9.27
2022-12-11T13:53:05.070Z,8.80
2022-12-11T13:55:36.434Z,11.50
2022-12-11T13:58:05.191Z,11.43
2022-12-11T14:00:35.554Z,11.77
2022-12-11T14:03:08.526Z,12.47
2022-12-11T14:05:37.694Z,10.57
2022-12-11T14:08:11.297Z,14.97
2022-12-11T14:10:41.546Z,12.37
2022-12-11T14:13:23.170Z,9.23
2022-12-11T14:15:54.842Z,15.57
2022-12-11T14:18:27.696Z,11.93
2022-12-11T14:20:57.979Z,10.77
2022-12-11T14:23:30.170Z,10.63
2022-12-11T14:29:27.855Z,12.83
2022-12-11T14:32:02.863Z,12.17
2022-12-11T14:34:37.325Z,10.03
2022-12-11T14:37:09.017Z,9.57
2022-12-11T14:39:45.901Z,9.23
2022-12-11T14:42:20.939Z,10.30
2022-12-11T14:44:56.484Z,12.13
2022-12-11T14:47:34.080Z,9.30
2022-12-11T14:50:08.238Z,9.53
2022-12-11T14:52:43.157Z,9.00
2022-12-11T14:55:19.140Z,10.33
2022-12-11T14:57:52.881Z,13.67
2022-12-11T15:00:28.140Z,9.57
2022-12-11T15:03:05.196Z,11.67
2022-12-11T15:05:40.825Z,9.80
2022-12-11T15:08:25.044Z,9.67
2022-12-11T15:11:13.559Z,8.47
2022-12-11T15:13:55.625Z,10.47
2022-12-11T15:16:27.887Z,8.77
2022-12-11T15:18:59.011Z,8.73
2022-12-11T15:21:33.477Z,9.47
2022-12-11T15:24:07.061Z,8.77
2022-12-11T15:26:39.281Z,9.33
2022-12-11T15:29:27.431Z,9.83
2022-12-11T15:32:14.831Z,10.43
2022-12-11T15:34:48.960Z,9.30
2022-12-11T15:37:24.819Z,9.20
2022-12-11T15:39:55.389Z,8.93
2022-12-11T15:42:33.136Z,9.33
2022-12-11T15:45:03.020Z,8.90
2022-12-11T15:47:32.739Z,16.97
2022-12-11T15:50:14.474Z,12.23
2022-12-11T15:52:43.653Z,12.67
2022-12-11T15:55:13.239Z,10.00
2022-12-11T15:57:47.021Z,9.20
2022-12-11T16:00:18.769Z,10.37
2022-12-11T16:02:48.760Z,9.40
2022-12-11T16:05:19.070Z,7.77
2022-12-11T16:07:47.958Z,7.83
2022-12-11T16:10:19.927Z,7.93
2022-12-11T16:12:49.012Z,7.63
2022-12-11T16:15:23.621Z,10.03
2022-12-11T16:18:03.091Z,8.53
2022-12-11T16:20:35.403Z,10.00
2022-12-11T16:23:05.327Z,8.37
2022-12-11T16:25:34.384Z,7.10
2022-12-11T16:28:03.392Z,7.30
2022-12-11T16:30:32.719Z,8.07
2022-12-11T16:33:03.042Z,7.40
2022-12-11T16:35:36.384Z,7.47
2022-12-11T16:38:05.188Z,15.50
2022-12-11T16:40:34.228Z,12.93
2022-12-11T16:43:04.972Z,9.83
2022-12-11T16:45:34.976Z,9.00
2022-12-11T16:48:05.921Z,13.67
2022-12-11T16:50:36.603Z,9.30
2022-12-11T16:53:05.337Z,9.23
2022-12-11T16:55:34.334Z,9.83
2022-12-11T16:58:03.189Z,7.80
2022-12-11T17:00:32.075Z,8.93
2022-12-11T17:03:01.804Z,8.53
2022-12-11T17:05:30.785Z,13.63
2022-12-11T17:08:01.187Z,8.07
2022-12-11T17:10:30.158Z,8.53
2022-12-11T17:12:59.307Z,8.87
2022-12-11T17:15:28.616Z,8.73
2022-12-11T17:17:57.605Z,7.73
2022-12-11T17:20:27.308Z,8.90
2022-12-11T17:22:55.994Z,7.97
2022-12-11T17:25:26.527Z,8.70
2022-12-11T17:27:56.781Z,9.43
2022-12-11T17:30:25.768Z,9.40
2022-12-11T17:32:54.915Z,10.17
2022-12-11T17:35:24.253Z,8.43
2022-12-11T17:37:53.280Z,8.53
2022-12-11T17:40:23.594Z,7.83
2022-12-11T17:42:53.875Z,8.93
2022-12-11T17:45:22.861Z,10.03
2022-12-11T17:47:51.937Z,9.73
2022-12-11T17:50:21.006Z,8.63
2022-12-11T17:52:49.897Z,11.53
2022-12-11T17:55:19.069Z,8.07
2022-12-11T17:57:47.849Z,8.43
2022-12-11T18:00:19.651Z,9.20
2022-12-11T18:02:48.391Z,8.27
2022-12-11T18:05:17.252Z,9.00
2022-12-11T18:07:58.057Z,9.23
2022-12-11T18:10:29.566Z,9.17
2022-12-11T18:13:01.127Z,8.90
2022-12-11T18:15:32.275Z,9.43
2022-12-11T18:18:01.461Z,11.20
2022-12-11T18:20:37.430Z,8.67
2022-12-11T18:23:07.362Z,9.27
2022-12-11T18:25:36.236Z,17.77
2022-12-11T18:28:06.374Z,12.93
2022-12-11T18:30:36.878Z,8.00
2022-12-11T18:33:05.803Z,8.07
2022-12-11T18:35:34.757Z,8.60
2022-12-11T18:38:03.681Z,7.80
2022-12-11T18:40:33.094Z,10.07
2022-12-11T18:43:02.031Z,9.23
2022-12-11T18:45:30.783Z,8.57
2022-12-11T18:48:01.226Z,9.77
2022-12-11T18:50:30.111Z,8.60
2022-12-11T18:52:58.828Z,9.00
2022-12-11T18:55:27.913Z,8.70
2022-12-11T18:57:57.015Z,11.83
2022-12-11T19:00:26.108Z,8.40
2022-12-11T19:02:55.081Z,9.20
2022-12-11T19:05:25.415Z,9.00
2022-12-11T19:08:03.030Z,8.53
2022-12-11T19:10:33.881Z,9.37
2022-12-11T19:13:03.187Z,9.37
2022-12-11T19:15:31.860Z,9.67
2022-12-11T19:18:00.673Z,8.97
2022-12-11T19:20:48.452Z,8.50
2022-12-11T19:23:18.583Z,9.50
2022-12-11T19:25:51.328Z,9.67
2022-12-11T19:28:20.564Z,11.43
2022-12-11T19:30:51.391Z,10.50
2022-12-11T19:33:20.510Z,9.73
2022-12-11T19:35:51.063Z,8.73
2022-12-11T19:38:19.763Z,9.50
2022-12-11T19:40:49.078Z,10.00
2022-12-11T19:43:19.618Z,9.93
2022-12-11T19:45:48.965Z,10.73
2022-12-11T19:48:18.718Z,9.73
2022-12-11T19:50:47.547Z,11.80
2022-12-11T19:53:18.121Z,8.77
2022-12-11T19:55:52.382Z,10.07
2022-12-11T19:58:21.888Z,9.67
2022-12-11T20:00:51.430Z,12.07
2022-12-11T20:03:20.406Z,10.57
2022-12-11T20:05:49.313Z,12.57
2022-12-11T20:08:43.584Z,8.43
2022-12-11T20:11:17.323Z,10.67
2022-12-11T20:13:47.457Z,13.23
2022-12-11T20:16:28.880Z,13.27
2022-12-11T20:19:09.438Z,12.83
2022-12-11T20:21:38.225Z,10.20
2022-12-11T20:24:09.599Z,10.40
2022-12-11T20:26:39.074Z,10.67
2022-12-11T20:29:09.227Z,13.10
2022-12-11T20:31:38.536Z,13.77
2022-12-11T20:34:08.375Z,11.57
2022-12-11T20:36:37.066Z,18.23
2022-12-11T20:39:07.549Z,13.53
2022-12-11T20:41:36.203Z,15.13
2022-12-11T20:44:04.867Z,10.43
2022-12-11T20:46:33.657Z,10.73
2022-12-11T20:49:02.294Z,12.07
2022-12-11T20:51:32.823Z,13.03
2022-12-11T20:54:02.048Z,11.73
2022-12-11T20:56:32.858Z,12.17
2022-12-11T20:59:02.155Z,12.83
2022-12-11T21:01:34.967Z,11.80
2022-12-11T21:04:04.407Z,15.37
2022-12-11T21:06:36.108Z,13.93
2022-12-11T21:09:09.487Z,11.27
2022-12-11T21:11:39.721Z,12.20
2022-12-11T21:14:08.993Z,11.97
2022-12-11T21:16:39.509Z,12.57
2022-12-11T21:19:12.450Z,11.80
2022-12-11T21:21:46.415Z,11.37
2022-12-11T21:24:19.417Z,12.93
2022-12-11T21:26:51.052Z,11.17
2022-12-11T21:29:20.559Z,10.70
2022-12-11T21:31:49.898Z,11.37
2022-12-11T21:34:25.253Z,12.70
2022-12-11T21:36:57.303Z,13.10
2022-12-11T21:39:28.429Z,12.53
2022-12-11T21:42:00.632Z,10.37
2022-12-11T21:47:20.797Z,11.63
2022-12-11T21:49:50.121Z,11.07
2022-12-11T21:52:19.096Z,13.83
2022-12-11T21:54:48.580Z,14.00
2022-12-11T21:57:24.386Z,11.37
2022-12-11T21:59:55.216Z,12.43
2022-12-11T22:02:24.256Z,13.13
2022-12-11T22:04:54.242Z,12.87
2022-12-11T22:07:23.193Z,13.00
2022-12-11T22:09:52.358Z,13.67
2022-12-11T22:12:26.922Z,13.90
2022-12-11T22:14:56.147Z,12.63
2022-12-11T22:17:25.213Z,11.33
2022-12-11T22:19:54.092Z,15.83
2022-12-11T22:22:23.097Z,13.20
2022-12-11T22:24:51.973Z,15.17
2022-12-11T22:27:24.048Z,12.73
2022-12-11T22:30:02.572Z,15.00
2022-12-11T22:32:31.723Z,12.13
2022-12-11T22:35:00.762Z,13.70
2022-12-11T22:37:30.260Z,12.63
2022-12-11T22:39:59.188Z,13.93
2022-12-11T22:42:29.715Z,11.70
2022-12-11T22:44:58.800Z,11.27
2022-12-11T22:47:28.306Z,12.63
2022-12-11T22:49:57.395Z,11.97
2022-12-11T22:52:26.505Z,11.83
2022-12-11T22:54:55.810Z,13.13
2022-12-11T22:57:24.835Z,14.00
2022-12-11T22:59:56.963Z,15.37
2022-12-11T23:02:26.145Z,11.80
2022-12-11T23:04:54.983Z,12.33
2022-12-11T23:07:23.802Z,12.43
2022-12-11T23:09:52.788Z,10.23
2022-12-11T23:12:21.604Z,12.90
2022-12-11T23:14:50.611Z,11.03
2022-12-11T23:17:20.955Z,12.30
2022-12-11T23:19:49.918Z,13.70
2022-12-11T23:22:19.279Z,11.70
2022-12-11T23:24:48.168Z,11.40
2022-12-11T23:27:17.301Z,11.23
2022-12-11T23:29:46.609Z,11.23
2022-12-11T23:32:15.709Z,10.50
2022-12-11T23:34:46.027Z,10.60
2022-12-11T23:37:15.581Z,11.87
2022-12-11T23:39:44.424Z,10.43
2022-12-11T23:42:13.208Z,11.80
2022-12-11T23:44:41.902Z,13.20
2022-12-11T23:47:11.200Z,12.83
2022-12-11T23:49:39.838Z,12.00
2022-12-11T23:52:12.371Z,12.13
2022-12-11T23:54:41.222Z,13.10
2022-12-11T23:57:10.180Z,13.07
2022-12-11T23:59:39.046Z,12.17
